PAL2982 RPVA-RPLL
Flight info
| Callsign | PAL2982 |
|---|---|
| Flight time | N/A |
| Altitude | 34000 |
| Route | MALAG5R MALAG W9 AKDAP AKDAP1A |
| Aircraft | A321/M-SDE3FGHIRWY/LB1 |
Departure
| Time | N/A |
|---|---|
| Airport | Daniel Z. Romualdez Airport (RPVA) |
Arrival
| Time | 2026-04-30 19:39 |
|---|---|
| Airport | Ninoy Aquino International Airport (RPLL) |
| Time | Latitude | Longitude | Altitude | Speed | Heading |
|---|---|---|---|---|---|
| 2026-04-30 19:24 | 14.43558 | 121.42149 | 13002 ft | 359 kts | 294° |
| 2026-04-30 19:24 | 14.44556 | 121.39806 | 12568 ft | 356 kts | 294° |
| 2026-04-30 19:24 | 14.46502 | 121.35236 | 12379 ft | 340 kts | 294° |
| 2026-04-30 19:25 | 14.49111 | 121.28760 | 11936 ft | 311 kts | 279° |
| 2026-04-30 19:26 | 14.48014 | 121.24659 | 11394 ft | 299 kts | 238° |
| 2026-04-30 19:26 | 14.45813 | 121.21102 | 10847 ft | 291 kts | 238° |
| 2026-04-30 19:26 | 14.44767 | 121.19354 | 10582 ft | 286 kts | 238° |
| 2026-04-30 19:27 | 14.42759 | 121.15863 | 10053 ft | 278 kts | 239° |
| 2026-04-30 19:27 | 14.40854 | 121.12467 | 9533 ft | 270 kts | 240° |
| 2026-04-30 19:28 | 14.39932 | 121.10815 | 9231 ft | 268 kts | 240° |
| 2026-04-30 19:28 | 14.38081 | 121.07488 | 8576 ft | 266 kts | 240° |
| 2026-04-30 19:29 | 14.36250 | 121.04195 | 7820 ft | 269 kts | 240° |
| 2026-04-30 19:29 | 14.35318 | 121.02520 | 7437 ft | 270 kts | 240° |
| 2026-04-30 19:30 | 14.32509 | 120.97472 | 6314 ft | 272 kts | 240° |
| 2026-04-30 19:30 | 14.30620 | 120.94072 | 5559 ft | 270 kts | 240° |
| 2026-04-30 19:31 | 14.28776 | 120.90741 | 4809 ft | 269 kts | 243° |
| 2026-04-30 19:31 | 14.28343 | 120.88898 | 4405 ft | 267 kts | 275° |
| 2026-04-30 19:31 | 14.30468 | 120.86164 | 4149 ft | 252 kts | 337° |
| 2026-04-30 19:32 | 14.32065 | 120.85500 | 3960 ft | 247 kts | 339° |
| 2026-04-30 19:32 | 14.33639 | 120.84810 | 3846 ft | 239 kts | 336° |
| 2026-04-30 19:32 | 14.35106 | 120.84080 | 3774 ft | 230 kts | 334° |
| 2026-04-30 19:32 | 14.36471 | 120.83341 | 3772 ft | 214 kts | 333° |
| 2026-04-30 19:33 | 14.37750 | 120.82622 | 3586 ft | 205 kts | 332° |
| 2026-04-30 19:33 | 14.39014 | 120.81953 | 3205 ft | 206 kts | 343° |
| 2026-04-30 19:33 | 14.40380 | 120.81978 | 2994 ft | 192 kts | 23° |
| 2026-04-30 19:33 | 14.41306 | 120.82806 | 2980 ft | 165 kts | 64° |
| 2026-04-30 19:34 | 14.41633 | 120.83868 | 2984 ft | 151 kts | 79° |
| 2026-04-30 19:34 | 14.41852 | 120.84926 | 2985 ft | 149 kts | 76° |
| 2026-04-30 19:34 | 14.42583 | 120.86919 | 2916 ft | 149 kts | 64° |
| 2026-04-30 19:35 | 14.43056 | 120.87872 | 2734 ft | 148 kts | 62° |
| 2026-04-30 19:35 | 14.43545 | 120.88788 | 2537 ft | 147 kts | 61° |
| 2026-04-30 19:35 | 14.44053 | 120.89713 | 2340 ft | 147 kts | 60° |
| 2026-04-30 19:35 | 14.44557 | 120.90617 | 2141 ft | 146 kts | 61° |
| 2026-04-30 19:36 | 14.44896 | 120.91225 | 2014 ft | 146 kts | 61° |
| 2026-04-30 19:36 | 14.45572 | 120.92437 | 1755 ft | 145 kts | 61° |
| 2026-04-30 19:36 | 14.46578 | 120.94243 | 1368 ft | 145 kts | 62° |
| 2026-04-30 19:37 | 14.47075 | 120.95137 | 1184 ft | 144 kts | 60° |
| 2026-04-30 19:37 | 14.47577 | 120.96040 | 987 ft | 144 kts | 61° |
| 2026-04-30 19:37 | 14.48074 | 120.96932 | 791 ft | 144 kts | 62° |
| 2026-04-30 19:37 | 14.48574 | 120.97835 | 614 ft | 143 kts | 62° |
| 2026-04-30 19:38 | 14.49060 | 120.98720 | 432 ft | 143 kts | 61° |
| 2026-04-30 19:38 | 14.49557 | 120.99605 | 241 ft | 142 kts | 62° |
| 2026-04-30 19:38 | 14.50044 | 121.00475 | 85 ft | 136 kts | 61° |
| 2026-04-30 19:38 | 14.50375 | 121.01089 | 84 ft | 53 kts | 60° |
| 2026-04-30 19:39 | 14.50495 | 121.01191 | 84 ft | 20 kts | 339° |
| 2026-04-30 19:39 | 14.50585 | 121.01141 | 84 ft | 14 kts | 330° |
| 2026-04-30 19:39 | 14.50666 | 121.01158 | 84 ft | 13 kts | 56° |
| 2026-04-30 19:39 | 14.50711 | 121.01244 | 84 ft | 13 kts | 62° |
| 2026-04-30 19:40 | 14.50754 | 121.01293 | 84 ft | 6 kts | 355° |
| 2026-04-30 19:40 | 14.50794 | 121.01270 | 84 ft | 7 kts | 329° |
| 2026-04-30 19:40 | 14.50823 | 121.01253 | 84 ft | 4 kts | 330° |
| 2026-04-30 19:40 | 14.50825 | 121.01252 | 84 ft | 0 kts | 330° |